Time;durP1;ratioP1;P1;durP2;ratioP2;P2;SDS_P1;SDS_P2;PMS_P1;PMS_P2;Temp;Humidity;BMP_temperature;BMP_pressure;BME280_temperature;BME280_humidity;BME280_pressure;Samples;Min_cycle;Max_cycle;Signal;HPM_P1;HPM_P2
2022/05/14 00:01:08;;;;;;;5.03;1.73;;;12.70;99.90;;;;;;5074733;28;20212;-87
2022/05/14 00:03:38;;;;;;;9.77;2.13;;;12.70;99.90;;;;;;5074133;28;20233;-87
2022/05/14 00:06:07;;;;;;;8.10;1.70;;;12.70;99.90;;;;;;5074506;28;20653;-88
2022/05/14 00:08:34;;;;;;;5.50;1.83;;;12.50;99.90;;;;;;5074846;28;20204;-88
2022/05/14 00:13:47;;;;;;;6.50;1.90;;;12.40;99.90;;;;;;5094976;28;20257;-88
2022/05/14 00:16:16;;;;;;;8.23;2.20;;;12.40;99.90;;;;;;5094676;28;20214;-88
2022/05/14 00:18:44;;;;;;;5.15;1.88;;;12.40;99.90;;;;;;5094459;28;20434;-88
2022/05/14 00:21:12;;;;;;;4.97;2.00;;;12.40;99.90;;;;;;5094695;28;20734;-88
2022/05/14 00:23:40;;;;;;;6.50;1.53;;;12.40;99.90;;;;;;5094504;28;20232;-88
2022/05/14 00:26:07;;;;;;;6.20;2.17;;;12.30;99.90;;;;;;5093567;28;20578;-87
2022/05/14 00:28:34;;;;;;;4.40;1.93;;;12.30;99.90;;;;;;5094359;28;20204;-87
2022/05/14 00:31:03;;;;;;;4.67;1.70;;;12.30;99.90;;;;;;5094566;28;20205;-89
2022/05/14 00:33:30;;;;;;;7.40;1.93;;;12.10;99.90;;;;;;5094299;28;20224;-88
2022/05/14 00:35:56;;;;;;;3.83;1.70;;;11.90;99.90;;;;;;5094537;28;20208;-88
2022/05/14 00:38:23;;;;;;;6.70;2.10;;;12.00;99.90;;;;;;5094302;28;20197;-89
2022/05/14 00:40:57;;;;;;;6.07;1.63;;;11.60;99.90;;;;;;5093946;28;20589;-89
2022/05/14 00:43:25;;;;;;;8.00;2.37;;;11.70;99.90;;;;;;5094157;28;20232;-88
2022/05/14 00:45:56;;;;;;;3.60;1.60;;;11.70;99.90;;;;;;5094485;28;20213;-88
2022/05/14 00:48:28;;;;;;;7.40;2.37;;;11.80;99.90;;;;;;5093921;28;20201;-88
2022/05/14 00:50:57;;;;;;;6.63;1.93;;;11.90;99.90;;;;;;5094208;28;20205;-88
2022/05/14 00:53:27;;;;;;;6.93;1.70;;;11.90;99.90;;;;;;5094342;28;20660;-89
2022/05/14 00:55:58;;;;;;;6.77;2.23;;;11.90;99.90;;;;;;5094472;28;20205;-89
2022/05/14 00:58:33;;;;;;;6.17;2.00;;;11.80;99.90;;;;;;5094298;28;20205;-88
2022/05/14 01:01:00;;;;;;;4.27;1.93;;;11.90;99.90;;;;;;5094107;28;20189;-88
2022/05/14 01:03:28;;;;;;;6.73;2.00;;;11.80;99.90;;;;;;5093579;28;20232;-88
2022/05/14 01:05:59;;;;;;;7.10;1.90;;;11.90;99.90;;;;;;5094073;28;20668;-88
2022/05/14 01:08:26;;;;;;;4.63;2.00;;;11.80;99.90;;;;;;5094038;28;20207;-88
2022/05/14 01:10:54;;;;;;;10.50;2.10;;;11.80;99.90;;;;;;5094204;28;20228;-87
2022/05/14 01:13:21;;;;;;;7.53;2.27;;;11.80;99.90;;;;;;5093959;28;20203;-88
2022/05/14 01:15:50;;;;;;;7.53;2.40;;;11.80;99.90;;;;;;5093587;28;20204;-87
2022/05/14 01:18:18;;;;;;;4.07;2.07;;;11.70;99.90;;;;;;5093997;28;20194;-87
2022/05/14 01:20:52;;;;;;;2.73;2.00;;;11.70;99.90;;;;;;5094056;28;20205;-87
2022/05/14 01:23:29;;;;;;;6.27;1.90;;;11.80;99.90;;;;;;5093661;28;20228;-88
2022/05/14 01:26:29;;;;;;;5.87;2.00;;;11.70;99.90;;;;;;5093995;28;20214;-88
2022/05/14 01:28:58;;;;;;;9.23;2.30;;;11.70;99.90;;;;;;5093704;28;20209;-87
2022/05/14 01:31:25;;;;;;;9.70;2.80;;;11.70;99.90;;;;;;5093356;28;20584;-87
2022/05/14 01:33:52;;;;;;;5.13;2.60;;;11.70;99.90;;;;;;5093727;28;20251;-88
2022/05/14 01:36:19;;;;;;;5.13;2.27;;;11.50;99.90;;;;;;5093799;28;20211;-88
2022/05/14 01:38:46;;;;;;;5.50;2.23;;;11.50;99.90;;;;;;5093771;28;20214;-87
2022/05/14 01:41:13;;;;;;;7.47;2.23;;;11.40;99.90;;;;;;5093731;28;20205;-87
2022/05/14 01:43:41;;;;;;;4.63;2.20;;;11.40;99.90;;;;;;5093759;28;20229;-88
2022/05/14 01:46:08;;;;;;;9.80;2.43;;;11.30;99.90;;;;;;5094406;28;20205;-87
2022/05/14 01:48:35;;;;;;;8.50;2.00;;;11.30;99.90;;;;;;5093706;28;20189;-87
2022/05/14 01:51:02;;;;;;;5.07;2.30;;;11.20;99.90;;;;;;5094332;28;20197;-88
2022/05/14 01:53:29;;;;;;;9.23;2.10;;;11.10;99.90;;;;;;5097595;28;20633;-88
2022/05/14 01:55:57;;;;;;;5.72;2.80;;;11.10;99.90;;;;;;5097171;28;20466;-87
2022/05/14 01:58:40;;;;;;;7.20;2.40;;;11.10;99.90;;;;;;5097346;28;20216;-89
2022/05/14 02:01:19;;;;;;;7.80;2.60;;;11.10;99.90;;;;;;5097244;28;20674;-88
2022/05/14 02:03:48;;;;;;;7.97;2.47;;;11.30;99.90;;;;;;5097269;28;20618;-89
2022/05/14 02:06:15;;;;;;;6.57;2.47;;;11.30;99.90;;;;;;5097728;28;20648;-89
2022/05/14 02:08:43;;;;;;;6.13;2.80;;;11.40;99.90;;;;;;5097522;28;20208;-90
2022/05/14 02:11:11;;;;;;;6.50;2.73;;;11.30;99.90;;;;;;5097256;28;20292;-89
2022/05/14 02:13:38;;;;;;;10.17;2.40;;;11.20;99.90;;;;;;5096861;28;20205;-89
2022/05/14 02:16:05;;;;;;;7.23;2.60;;;11.30;99.90;;;;;;5097235;28;20213;-89
2022/05/14 02:18:33;;;;;;;9.47;2.83;;;11.20;99.90;;;;;;5097007;28;20201;-88
2022/05/14 02:21:00;;;;;;;9.17;3.03;;;11.30;99.90;;;;;;5097171;28;20657;-88
2022/05/14 02:23:28;;;;;;;7.20;2.80;;;11.20;99.90;;;;;;5097062;28;20232;-89
2022/05/14 02:25:54;;;;;;;4.13;2.30;;;11.10;99.90;;;;;;5096977;28;20202;-88
2022/05/14 02:28:21;;;;;;;5.50;2.67;;;11.10;99.90;;;;;;5097025;28;20186;-89
2022/05/14 02:30:48;;;;;;;8.43;2.80;;;11.00;99.90;;;;;;5097036;28;20201;-88
2022/05/14 02:33:15;;;;;;;7.37;3.10;;;11.00;99.90;;;;;;5095797;28;20684;-89
2022/05/14 02:35:44;;;;;;;6.60;2.80;;;10.80;99.90;;;;;;5096025;28;20231;-89
2022/05/14 02:38:12;;;;;;;11.03;3.30;;;10.90;99.90;;;;;;5096746;28;20262;-88
2022/05/14 02:40:39;;;;;;;6.50;2.90;;;10.90;99.90;;;;;;5097018;28;20197;-89
2022/05/14 02:43:07;;;;;;;8.00;2.90;;;10.90;99.90;;;;;;5096195;28;20228;-89
2022/05/14 02:45:33;;;;;;;8.40;2.97;;;10.80;99.90;;;;;;5096957;28;20584;-89
2022/05/14 02:48:00;;;;;;;12.03;3.10;;;10.70;99.90;;;;;;5096729;28;20574;-88
2022/05/14 02:50:27;;;;;;;8.83;3.13;;;10.70;99.90;;;;;;5096513;28;20208;-88
2022/05/14 02:52:56;;;;;;;6.93;2.70;;;10.70;99.90;;;;;;5096293;28;20212;-88
2022/05/14 02:55:23;;;;;;;10.33;3.00;;;10.80;99.90;;;;;;5096215;28;20209;-88
2022/05/14 02:57:50;;;;;;;8.63;2.93;;;10.80;99.90;;;;;;5096106;28;20198;-87
2022/05/14 03:00:21;;;;;;;5.87;2.60;;;10.80;99.90;;;;;;5096308;28;20232;-88
2022/05/14 03:02:48;;;;;;;6.50;3.20;;;10.60;99.90;;;;;;5095623;28;20224;-88
2022/05/14 03:05:17;;;;;;;5.50;2.60;;;10.70;99.90;;;;;;5095802;28;20197;-87
2022/05/14 03:07:44;;;;;;;10.90;3.33;;;10.70;99.90;;;;;;5094925;28;20254;-89
2022/05/14 03:10:13;;;;;;;13.03;3.13;;;10.60;99.90;;;;;;5095811;28;20212;-88
2022/05/14 03:12:40;;;;;;;5.20;3.03;;;10.60;99.90;;;;;;5095915;28;20228;-88
2022/05/14 03:15:09;;;;;;;6.80;3.07;;;10.50;99.90;;;;;;5096214;28;20212;-88
2022/05/14 03:17:37;;;;;;;6.67;3.47;;;10.40;99.90;;;;;;5096216;28;20201;-88
2022/05/14 03:20:06;;;;;;;8.00;3.23;;;10.40;99.90;;;;;;5095985;28;20208;-88
2022/05/14 03:22:33;;;;;;;9.13;3.20;;;10.40;99.90;;;;;;5096247;28;20436;-87
2022/05/14 03:25:00;;;;;;;10.57;3.40;;;10.30;99.90;;;;;;5095363;28;20258;-88
2022/05/14 03:27:28;;;;;;;5.53;2.80;;;10.20;99.90;;;;;;5095662;28;20201;-88
2022/05/14 03:29:56;;;;;;;8.73;3.00;;;10.20;99.90;;;;;;5096067;28;20196;-88
2022/05/14 03:32:24;;;;;;;6.40;2.83;;;10.20;99.90;;;;;;5095681;28;20648;-88
2022/05/14 03:34:50;;;;;;;7.60;3.00;;;10.30;99.90;;;;;;5095032;28;20205;-89
2022/05/14 03:37:17;;;;;;;10.73;3.37;;;10.30;99.90;;;;;;5094559;28;20262;-89
2022/05/14 03:39:44;;;;;;;6.40;2.80;;;10.40;99.90;;;;;;5095430;28;20617;-88
2022/05/14 03:42:11;;;;;;;10.10;2.90;;;10.40;99.90;;;;;;5095259;28;20197;-87
2022/05/14 03:44:39;;;;;;;9.73;3.17;;;10.50;99.90;;;;;;5095316;28;20229;-87
2022/05/14 03:47:06;;;;;;;8.07;2.83;;;10.30;99.90;;;;;;5095226;28;20201;-87
2022/05/14 03:49:33;;;;;;;8.83;3.43;;;10.30;99.90;;;;;;5095107;28;20212;-88
2022/05/14 03:52:00;;;;;;;9.50;3.30;;;10.30;99.90;;;;;;5095459;28;20200;-87
2022/05/14 03:54:26;;;;;;;9.93;3.23;;;10.30;99.90;;;;;;5095302;28;20564;-87
2022/05/14 03:56:53;;;;;;;11.73;3.23;;;10.20;99.90;;;;;;5094813;28;20205;-88
2022/05/14 03:59:20;;;;;;;9.63;3.20;;;10.10;99.90;;;;;;5092877;28;20322;-89
2022/05/14 04:01:48;;;;;;;8.27;3.10;;;10.00;99.90;;;;;;5086849;28;20596;-88
2022/05/14 04:04:15;;;;;;;8.80;3.47;;;10.00;99.90;;;;;;5074311;28;20226;-87
2022/05/14 04:06:42;;;;;;;10.73;3.50;;;10.00;99.90;;;;;;5073159;28;20707;-88
2022/05/14 04:09:09;;;;;;;11.33;3.93;;;10.00;99.90;;;;;;5074662;28;20224;-88
2022/05/14 04:11:37;;;;;;;12.53;3.63;;;10.00;99.90;;;;;;5074065;28;20208;-89
2022/05/14 04:14:05;;;;;;;11.03;3.50;;;10.00;99.90;;;;;;5073563;28;20213;-88
2022/05/14 04:16:31;;;;;;;5.97;3.60;;;10.00;99.90;;;;;;5074319;28;20202;-89
2022/05/14 04:18:59;;;;;;;7.85;4.30;;;10.00;99.90;;;;;;5073444;28;20910;-90
2022/05/14 04:21:26;;;;;;;10.57;3.47;;;10.00;99.90;;;;;;5074205;28;20208;-88
2022/05/14 04:23:53;;;;;;;9.97;3.30;;;10.00;99.90;;;;;;5074584;28;20225;-89
2022/05/14 04:26:23;;;;;;;6.63;3.57;;;10.10;99.90;;;;;;5073854;28;20190;-88
2022/05/14 04:28:50;;;;;;;12.50;3.40;;;10.20;99.90;;;;;;5074350;28;20288;-89
2022/05/14 04:31:17;;;;;;;8.20;3.33;;;10.20;99.90;;;;;;5074354;28;20205;-88
2022/05/14 04:33:44;;;;;;;5.50;3.20;;;10.10;99.90;;;;;;5074402;28;20685;-88
2022/05/14 04:36:12;;;;;;;9.40;3.70;;;10.10;99.90;;;;;;5073859;28;20213;-89
2022/05/14 04:38:39;;;;;;;8.73;3.50;;;9.80;99.90;;;;;;5073719;28;20197;-88
2022/05/14 04:41:06;;;;;;;9.90;4.30;;;9.90;99.90;;;;;;5074168;28;20224;-88
2022/05/14 04:43:33;;;;;;;6.27;3.33;;;10.10;99.90;;;;;;5074063;28;20252;-87
2022/05/14 04:46:00;;;;;;;10.90;3.73;;;10.20;99.90;;;;;;5074093;28;20202;-88
2022/05/14 04:48:27;;;;;;;16.60;3.93;;;10.30;99.90;;;;;;5073685;28;20202;-88
2022/05/14 04:50:54;;;;;;;9.10;3.30;;;10.30;99.90;;;;;;5073931;28;20517;-87
2022/05/14 04:53:22;;;;;;;12.00;5.43;;;10.30;99.90;;;;;;5074267;28;20217;-87
2022/05/14 04:55:51;;;;;;;11.33;3.37;;;10.30;99.90;;;;;;5073619;28;20205;-87
2022/05/14 04:58:17;;;;;;;13.33;6.03;;;10.50;99.90;;;;;;5074074;28;20209;-91
2022/05/14 05:00:44;;;;;;;7.03;3.53;;;10.40;99.90;;;;;;5075217;28;20201;-88
2022/05/14 05:03:19;;;;;;;9.80;3.30;;;10.30;99.90;;;;;;5093140;28;20205;-88
2022/05/14 05:05:47;;;;;;;9.30;4.00;;;10.30;99.90;;;;;;5092604;28;20442;-88
2022/05/14 05:08:14;;;;;;;8.63;3.70;;;10.10;99.90;;;;;;5092805;28;20204;-89
2022/05/14 05:10:43;;;;;;;9.83;3.47;;;10.30;99.90;;;;;;5094063;28;20586;-89
2022/05/14 05:13:11;;;;;;;7.43;3.57;;;10.40;99.90;;;;;;5093859;28;20566;-90
2022/05/14 05:15:38;;;;;;;9.43;4.00;;;10.60;99.90;;;;;;5094127;28;20205;-87
2022/05/14 05:18:06;;;;;;;10.13;3.77;;;10.60;99.90;;;;;;5093665;28;20200;-87
2022/05/14 05:20:33;;;;;;;12.03;3.90;;;10.70;99.90;;;;;;5094106;28;20204;-87
2022/05/14 05:23:00;;;;;;;11.73;4.27;;;10.80;99.90;;;;;;5093497;28;20204;-87
2022/05/14 05:25:27;;;;;;;9.23;3.43;;;10.90;99.90;;;;;;5094589;28;20228;-87
2022/05/14 05:27:55;;;;;;;12.53;4.20;;;10.80;99.90;;;;;;5097459;28;20218;-87
2022/05/14 05:30:22;;;;;;;15.27;4.13;;;10.50;99.90;;;;;;5097605;28;20197;-87
2022/05/14 05:32:51;;;;;;;8.30;3.53;;;10.50;99.90;;;;;;5097828;28;20232;-88
2022/05/14 05:35:19;;;;;;;13.87;3.80;;;10.80;99.90;;;;;;5097838;28;20232;-87
2022/05/14 05:37:46;;;;;;;11.00;3.17;;;10.90;99.90;;;;;;5097268;28;20304;-87
2022/05/14 05:40:13;;;;;;;6.90;3.57;;;10.90;99.90;;;;;;5097505;28;20614;-87
2022/05/14 05:42:40;;;;;;;11.17;4.07;;;11.00;99.90;;;;;;5097521;28;20208;-87
2022/05/14 05:45:10;;;;;;;9.33;4.07;;;10.90;99.90;;;;;;5097567;28;20756;-87
2022/05/14 05:47:37;;;;;;;9.30;3.77;;;11.00;99.90;;;;;;5097664;28;20203;-87
2022/05/14 05:50:06;;;;;;;12.37;3.60;;;11.20;99.90;;;;;;5097323;28;20200;-87
2022/05/14 05:52:33;;;;;;;10.13;4.00;;;11.10;99.90;;;;;;5094728;28;20312;-87
2022/05/14 05:57:44;;;;;;;14.20;4.23;;;11.40;99.90;;;;;;5096967;28;20204;-86
2022/05/14 06:00:16;;;;;;;13.17;4.33;;;11.50;99.90;;;;;;5096257;28;20569;-87
2022/05/14 06:02:44;;;;;;;10.80;4.03;;;11.50;99.90;;;;;;5075679;28;20206;-87
2022/05/14 06:05:10;;;;;;;8.87;4.10;;;11.70;99.90;;;;;;5076740;28;20658;-87
2022/05/14 06:07:38;;;;;;;13.23;4.23;;;11.50;99.90;;;;;;5076533;28;20213;-87
2022/05/14 06:10:07;;;;;;;8.73;3.80;;;11.60;99.90;;;;;;5076802;28;20653;-87
2022/05/14 06:12:38;;;;;;;12.67;4.50;;;11.70;99.90;;;;;;5076006;28;20634;-86
2022/05/14 06:15:06;;;;;;;13.27;4.60;;;11.70;99.90;;;;;;5075331;28;20209;-88
2022/05/14 06:17:34;;;;;;;9.87;4.57;;;11.90;99.90;;;;;;5076387;28;20225;-86
2022/05/14 06:20:01;;;;;;;8.97;5.13;;;12.00;99.90;;;;;;5076519;28;20577;-87
2022/05/14 06:22:28;;;;;;;15.30;4.97;;;12.00;99.90;;;;;;5076257;28;20220;-87
2022/05/14 06:24:55;;;;;;;14.10;4.63;;;12.10;99.90;;;;;;5076456;28;20255;-87
2022/05/14 06:27:22;;;;;;;19.20;5.00;;;12.30;99.90;;;;;;5076446;28;20210;-86
2022/05/14 06:29:48;;;;;;;14.17;4.60;;;12.30;99.90;;;;;;5076632;28;20203;-87
2022/05/14 06:32:15;;;;;;;12.67;4.80;;;12.60;99.90;;;;;;5077633;28;20198;-87
2022/05/14 06:34:43;;;;;;;12.50;5.30;;;12.70;99.90;;;;;;5076040;28;20556;-87
2022/05/14 06:37:10;;;;;;;12.03;4.97;;;12.70;99.90;;;;;;5090664;28;20194;-86
2022/05/14 06:39:37;;;;;;;14.20;5.23;;;12.80;99.90;;;;;;5096470;28;20188;-87
2022/05/14 06:42:05;;;;;;;15.40;5.37;;;12.80;99.90;;;;;;5096232;28;20549;-86
2022/05/14 06:44:32;;;;;;;16.67;5.30;;;12.90;99.90;;;;;;5096218;28;20226;-86
2022/05/14 06:46:59;;;;;;;9.60;5.63;;;13.00;99.90;;;;;;5096050;28;20207;-86
2022/05/14 06:49:26;;;;;;;13.00;5.77;;;13.00;99.90;;;;;;5095941;28;20198;-86
2022/05/14 06:51:57;;;;;;;10.67;5.23;;;13.20;99.90;;;;;;5096105;28;20343;-86
2022/05/14 06:54:23;;;;;;;10.07;5.13;;;13.30;99.90;;;;;;5096312;28;20212;-87
2022/05/14 06:56:51;;;;;;;11.27;5.63;;;13.40;99.90;;;;;;5096311;28;20206;-87
2022/05/14 06:59:18;;;;;;;11.97;5.80;;;13.30;99.90;;;;;;5096111;28;20286;-86
2022/05/14 07:01:47;;;;;;;12.60;5.73;;;13.30;99.90;;;;;;5089188;28;20666;-86
2022/05/14 07:07:05;;;;;;;11.77;5.53;;;13.40;99.90;;;;;;5077735;28;20389;-82
2022/05/14 07:09:33;;;;;;;13.33;6.73;;;13.60;99.90;;;;;;5079907;28;20198;-82
2022/05/14 07:12:03;;;;;;;11.50;5.90;;;13.70;99.90;;;;;;5074497;28;20205;-82
2022/05/14 07:14:31;;;;;;;12.67;6.50;;;13.80;99.90;;;;;;5077501;28;20236;-81
2022/05/14 07:16:58;;;;;;;11.27;5.37;;;13.90;99.90;;;;;;5074331;28;20216;-82
2022/05/14 07:19:25;;;;;;;16.17;6.83;;;13.80;99.90;;;;;;5074074;28;20208;-83
2022/05/14 07:21:53;;;;;;;17.53;6.53;;;13.80;99.90;;;;;;5074475;28;20250;-83
2022/05/14 07:24:24;;;;;;;21.30;6.53;;;14.00;99.90;;;;;;5083993;28;20679;-83
2022/05/14 07:26:51;;;;;;;17.87;6.27;;;14.10;99.90;;;;;;5093816;28;20635;-82
2022/05/14 07:29:21;;;;;;;16.07;6.67;;;14.30;99.90;;;;;;5094933;28;20254;-82
2022/05/14 07:31:48;;;;;;;20.13;8.00;;;14.40;99.90;;;;;;5093996;28;20516;-83
2022/05/14 07:34:15;;;;;;;17.97;7.20;;;14.50;99.90;;;;;;5094547;28;20313;-83
2022/05/14 07:36:54;;;;;;;14.03;6.40;;;14.60;99.90;;;;;;5094859;28;20196;-83
2022/05/14 07:39:26;;;;;;;18.37;6.80;;;14.70;99.90;;;;;;5094014;28;20207;-84
2022/05/14 07:41:56;;;;;;;19.20;6.97;;;14.80;99.90;;;;;;5094546;28;20661;-84
2022/05/14 07:44:26;;;;;;;16.93;6.43;;;14.80;99.90;;;;;;5093800;28;20229;-82
2022/05/14 07:46:55;;;;;;;16.47;6.50;;;14.90;99.90;;;;;;5094620;28;20205;-81
2022/05/14 07:49:24;;;;;;;20.70;6.83;;;14.90;99.90;;;;;;5094402;28;20205;-81
2022/05/14 07:51:52;;;;;;;15.60;6.03;;;14.90;99.90;;;;;;5094566;28;20208;-81
2022/05/14 07:54:20;;;;;;;16.27;6.00;;;15.10;99.90;;;;;;5094383;28;20220;-81
2022/05/14 07:56:48;;;;;;;13.43;6.00;;;15.20;99.90;;;;;;5094637;28;20200;-81
2022/05/14 07:59:15;;;;;;;14.03;6.23;;;15.50;99.90;;;;;;5094206;28;20208;-80
2022/05/14 08:01:42;;;;;;;18.57;6.97;;;15.60;99.90;;;;;;5094228;28;20201;-81
2022/05/14 08:04:09;;;;;;;17.03;6.37;;;15.50;99.90;;;;;;5094113;28;20192;-82
2022/05/14 08:06:36;;;;;;;15.77;6.07;;;15.60;99.90;;;;;;5094243;28;20198;-81
2022/05/14 08:09:03;;;;;;;12.27;5.77;;;15.70;99.90;;;;;;5094035;28;20235;-81
2022/05/14 08:11:30;;;;;;;16.90;6.53;;;16.00;99.90;;;;;;5093883;28;20211;-82
2022/05/14 08:13:59;;;;;;;16.73;6.60;;;16.10;99.90;;;;;;5093992;28;20201;-81
2022/05/14 08:16:26;;;;;;;18.17;6.10;;;16.10;99.90;;;;;;5093388;28;20211;-81
2022/05/14 08:18:53;;;;;;;18.48;6.72;;;16.10;99.90;;;;;;5094085;28;20378;-81
2022/05/14 08:26:50;;;;;;;15.63;6.33;;;16.00;99.90;;;;;;5093627;28;20218;-81
2022/05/14 08:29:19;;;;;;;17.40;6.13;;;16.20;99.90;;;;;;5094033;28;20211;-81
2022/05/14 08:31:46;;;;;;;21.50;6.23;;;16.30;99.90;;;;;;5093330;28;20661;-82
2022/05/14 08:34:13;;;;;;;14.40;5.30;;;16.50;99.90;;;;;;5093719;28;20224;-81
2022/05/14 08:36:40;;;;;;;13.33;5.70;;;16.80;99.90;;;;;;5093718;28;20588;-81
2022/05/14 08:39:07;;;;;;;11.40;5.20;;;16.80;99.90;;;;;;5093776;28;20204;-81
2022/05/14 08:41:37;;;;;;;12.47;4.87;;;16.90;99.90;;;;;;5093522;28;20194;-80
2022/05/14 08:44:06;;;;;;;11.03;5.30;;;16.80;99.90;;;;;;5094058;28;20206;-81
2022/05/14 08:46:38;;;;;;;12.67;4.73;;;16.70;99.90;;;;;;5093177;28;20231;-82
2022/05/14 08:49:18;;;;;;;14.07;4.87;;;16.70;99.90;;;;;;5093612;28;20218;-79
2022/05/14 08:51:49;;;;;;;13.80;5.13;;;17.00;99.90;;;;;;5093215;28;20218;-81
2022/05/14 08:54:15;;;;;;;16.13;5.97;;;17.20;99.90;;;;;;5093072;28;20671;-82
2022/05/14 08:56:48;;;;;;;16.37;5.67;;;17.40;99.90;;;;;;5092395;28;20201;-80
2022/05/14 08:59:45;;;;;;;16.60;5.50;;;17.40;99.90;;;;;;5093131;28;20205;-79
2022/05/14 09:02:17;;;;;;;17.03;5.10;;;17.30;99.90;;;;;;5095738;28;20204;-79
2022/05/14 09:04:45;;;;;;;14.10;5.00;;;17.40;99.90;;;;;;5095408;28;20216;-81
2022/05/14 09:07:12;;;;;;;16.73;4.70;;;17.50;99.90;;;;;;5095239;28;20193;-78
2022/05/14 09:09:51;;;;;;;12.00;4.67;;;17.70;99.90;;;;;;5095860;28;20557;-78
2022/05/14 09:12:21;;;;;;;16.40;5.50;;;17.80;99.90;;;;;;5095308;28;20205;-78
2022/05/14 09:14:54;;;;;;;12.47;4.30;;;18.00;99.90;;;;;;5097424;28;20664;-79
2022/05/14 09:17:23;;;;;;;12.77;4.63;;;18.10;99.90;;;;;;5095320;28;20534;-79
2022/05/14 09:19:52;;;;;;;12.67;4.23;;;18.10;99.90;;;;;;5095547;28;20217;-81
2022/05/14 09:22:30;;;;;;;10.97;4.50;;;18.10;99.90;;;;;;5094422;28;20280;-80
2022/05/14 09:25:17;;;;;;;10.30;4.00;;;18.20;99.90;;;;;;5093555;28;20645;-79
2022/05/14 09:27:46;;;;;;;13.50;4.30;;;18.30;99.90;;;;;;5091680;28;20561;-78
2022/05/14 09:30:23;;;;;;;11.50;3.87;;;18.20;99.90;;;;;;5093641;28;20209;-79
2022/05/14 09:32:51;;;;;;;11.95;4.22;;;18.10;99.90;;;;;;5093504;28;20426;-81
2022/05/14 09:35:20;;;;;;;11.80;3.97;;;18.30;99.90;;;;;;5093643;28;20205;-80
2022/05/14 09:37:47;;;;;;;12.13;3.70;;;18.20;99.90;;;;;;5093364;28;20194;-80
2022/05/14 09:40:24;;;;;;;11.03;3.80;;;18.10;99.90;;;;;;5093254;28;20209;-80
2022/05/14 09:42:53;;;;;;;10.47;4.50;;;18.10;99.90;;;;;;5092965;28;20214;-79
2022/05/14 09:45:28;;;;;;;13.50;4.07;;;18.30;99.90;;;;;;5092889;28;20221;-78
2022/05/14 09:47:57;;;;;;;10.27;4.37;;;18.50;99.90;;;;;;5092900;28;20673;-79
2022/05/14 09:50:33;;;;;;;12.90;4.50;;;18.50;99.90;;;;;;5092742;28;20682;-78
2022/05/14 09:53:03;;;;;;;13.43;3.87;;;18.70;99.90;;;;;;5092930;28;20190;-80
2022/05/14 09:56:02;;;;;;;11.33;4.83;;;18.80;99.90;;;;;;5092744;28;20242;-79
2022/05/14 09:58:38;;;;;;;11.70;4.23;;;18.70;99.90;;;;;;5080058;28;20205;-79
2022/05/14 10:01:16;;;;;;;10.97;4.00;;;18.80;99.90;;;;;;5093009;28;20194;-79
2022/05/14 10:03:55;;;;;;;12.00;4.13;;;19.00;99.90;;;;;;5092949;28;20204;-81
2022/05/14 10:06:32;;;;;;;15.60;3.77;;;19.20;99.90;;;;;;5092961;28;20218;-78
2022/05/14 10:09:14;;;;;;;12.33;3.70;;;19.20;99.90;;;;;;5092440;28;20559;-79
2022/05/14 10:11:44;;;;;;;9.57;3.50;;;19.10;99.90;;;;;;5092855;28;20215;-79
2022/05/14 10:14:28;;;;;;;10.57;3.73;;;19.10;99.90;;;;;;5096131;28;20286;-79
2022/05/14 10:17:08;;;;;;;8.53;3.70;;;19.20;99.90;;;;;;5096931;28;20234;-86
2022/05/14 10:20:04;;;;;;;13.27;4.20;;;19.40;99.90;;;;;;5096033;28;20211;-85
2022/05/14 10:28:23;;;;;;;11.53;4.37;;;19.50;99.90;;;;;;5096204;28;20196;-83
2022/05/14 10:30:55;;;;;;;10.60;3.70;;;19.20;99.90;;;;;;5095922;28;20563;-78
2022/05/14 10:33:25;;;;;;;9.77;4.13;;;19.30;99.90;;;;;;5095889;28;20588;-79
2022/05/14 10:36:00;;;;;;;16.93;4.20;;;19.40;99.90;;;;;;5096105;28;20603;-89
2022/05/14 10:38:32;;;;;;;8.43;3.53;;;19.50;99.90;;;;;;5095984;28;20208;-85
2022/05/14 10:41:04;;;;;;;11.13;3.93;;;19.80;99.90;;;;;;5095761;28;20215;-85
2022/05/14 10:43:41;;;;;;;12.40;3.37;;;19.90;99.90;;;;;;5095914;28;20212;-84
2022/05/14 10:46:10;;;;;;;11.47;3.67;;;19.90;99.90;;;;;;5095943;28;20307;-84
2022/05/14 10:48:44;;;;;;;13.23;3.83;;;19.90;99.90;;;;;;5095790;28;20232;-83
2022/05/14 10:51:19;;;;;;;15.90;3.87;;;19.90;99.90;;;;;;5095165;28;20658;-83
2022/05/14 10:53:47;;;;;;;11.60;4.57;;;20.00;99.90;;;;;;5095588;28;20204;-84
2022/05/14 10:56:21;;;;;;;13.50;4.07;;;20.10;99.90;;;;;;5095430;28;20209;-84
2022/05/14 10:58:59;;;;;;;11.57;3.57;;;20.30;99.90;;;;;;5095588;28;20209;-83
2022/05/14 11:01:30;;;;;;;12.03;4.20;;;20.30;99.90;;;;;;5091433;28;20212;-86
2022/05/14 11:04:00;;;;;;;11.73;4.10;;;20.30;99.90;;;;;;5088534;28;20234;-83
2022/05/14 11:06:36;;;;;;;10.20;4.10;;;20.20;99.90;;;;;;5095440;28;20235;-85
2022/05/14 11:09:17;;;;;;;12.43;3.80;;;20.10;99.90;;;;;;5095610;28;20287;-84
2022/05/14 11:11:50;;;;;;;11.63;4.13;;;20.30;99.90;;;;;;5094959;28;20645;-83
2022/05/14 11:14:17;;;;;;;8.33;3.90;;;20.50;99.90;;;;;;5095401;28;20223;-85
2022/05/14 11:16:47;;;;;;;10.23;4.13;;;20.40;99.90;;;;;;5095431;28;20201;-86
2022/05/14 11:19:27;;;;;;;9.97;3.87;;;20.50;99.90;;;;;;5095352;28;20219;-85
2022/05/14 11:21:56;;;;;;;12.70;4.17;;;20.50;99.90;;;;;;5094920;28;20193;-83
2022/05/14 11:24:35;;;;;;;8.93;3.60;;;20.80;99.90;;;;;;5094555;28;20939;-84
2022/05/14 11:27:02;;;;;;;13.80;4.50;;;21.00;99.90;;;;;;5094431;28;20237;-80
2022/05/14 11:29:34;;;;;;;9.60;4.13;;;21.10;99.90;;;;;;5094876;28;20208;-80
2022/05/14 11:32:09;;;;;;;14.27;4.00;;;21.20;99.90;;;;;;5094686;28;20203;-79
2022/05/14 11:34:37;;;;;;;12.53;4.40;;;21.20;99.90;;;;;;5094013;28;20526;-82
2022/05/14 11:37:07;;;;;;;12.37;3.80;;;21.10;99.90;;;;;;5094789;28;20209;-84
2022/05/14 11:39:36;;;;;;;10.67;4.07;;;20.90;99.90;;;;;;5094558;28;20208;-83
2022/05/14 11:42:28;;;;;;;7.43;3.60;;;20.90;99.90;;;;;;5094943;28;20205;-84
2022/05/14 11:45:04;;;;;;;11.83;4.67;;;20.80;99.90;;;;;;5094476;28;20201;-84
2022/05/14 11:47:54;;;;;;;12.67;4.20;;;20.90;99.90;;;;;;5094492;28;20582;-84
2022/05/14 11:50:27;;;;;;;12.77;3.93;;;20.90;99.90;;;;;;5094511;28;20197;-84
2022/05/14 11:53:05;;;;;;;12.23;4.03;;;21.10;99.90;;;;;;5094708;28;20231;-83
2022/05/14 11:55:38;;;;;;;8.07;3.70;;;21.10;99.90;;;;;;5093967;28;20222;-79
2022/05/14 11:58:11;;;;;;;8.93;3.93;;;21.20;99.90;;;;;;5094182;28;20197;-82
2022/05/14 12:00:39;;;;;;;10.63;3.90;;;21.20;99.90;;;;;;5093404;28;20202;-81
2022/05/14 12:03:14;;;;;;;8.53;3.60;;;21.10;99.90;;;;;;5096018;28;20224;-83
2022/05/14 12:05:46;;;;;;;14.30;3.70;;;21.10;99.90;;;;;;5110356;28;20624;-85
2022/05/14 12:08:33;;;;;;;11.43;3.60;;;21.10;99.90;;;;;;5114658;28;20203;-87
2022/05/14 12:11:17;;;;;;;6.07;3.00;;;21.30;99.90;;;;;;5115058;28;20209;-87
2022/05/14 12:13:52;;;;;;;10.90;3.47;;;21.70;99.90;;;;;;5113979;28;20243;-87
2022/05/14 12:16:29;;;;;;;10.13;3.67;;;21.70;99.90;;;;;;5114889;28;20216;-86
2022/05/14 12:18:58;;;;;;;9.00;3.67;;;21.40;99.90;;;;;;5095374;28;20202;-87
2022/05/14 12:21:25;;;;;;;12.80;3.27;;;21.30;99.90;;;;;;5094645;28;20248;-86
2022/05/14 12:23:53;;;;;;;11.60;3.40;;;21.40;99.90;;;;;;5094302;28;20191;-86
2022/05/14 12:26:25;;;;;;;8.60;3.03;;;21.60;99.90;;;;;;5094472;28;20235;-87
2022/05/14 12:28:52;;;;;;;9.50;3.73;;;21.90;99.90;;;;;;5093969;28;20197;-87
2022/05/14 12:34:12;;;;;;;12.50;4.20;;;22.00;99.90;;;;;;5094390;28;20271;-86
2022/05/14 12:36:49;;;;;;;12.47;3.70;;;22.00;99.90;;;;;;5094519;28;20199;-87
2022/05/14 12:39:22;;;;;;;9.57;3.87;;;22.10;99.90;;;;;;5094275;28;20196;-86
2022/05/14 12:41:54;;;;;;;12.23;3.40;;;22.10;99.90;;;;;;5093991;28;20210;-86
2022/05/14 12:44:25;;;;;;;10.27;3.33;;;22.00;99.90;;;;;;5094272;28;20185;-88
2022/05/14 12:46:56;;;;;;;7.60;3.50;;;21.90;99.90;;;;;;5094501;28;20205;-89
2022/05/14 12:49:27;;;;;;;8.87;3.47;;;21.50;99.90;;;;;;5094710;28;20207;-86
2022/05/14 12:51:56;;;;;;;8.67;3.33;;;21.40;99.90;;;;;;5095158;28;20199;-88
2022/05/14 12:54:27;;;;;;;7.60;2.87;;;21.60;99.90;;;;;;5098042;28;20211;-87
2022/05/14 12:56:58;;;;;;;7.73;2.87;;;21.90;99.90;;;;;;5101657;28;20238;-88
2022/05/14 12:59:27;;;;;;;11.73;3.13;;;21.90;99.90;;;;;;5103183;28;20204;-86
2022/05/14 13:02:00;;;;;;;11.70;3.20;;;22.00;99.90;;;;;;5102464;28;20195;-87
2022/05/14 13:04:37;;;;;;;8.93;2.80;;;22.10;99.90;;;;;;5102758;28;20195;-87
2022/05/14 13:07:08;;;;;;;8.97;3.20;;;22.00;99.90;;;;;;5093731;28;20227;-89
2022/05/14 13:09:37;;;;;;;8.73;3.10;;;22.20;99.90;;;;;;5093137;28;20214;-86
2022/05/14 13:12:05;;;;;;;8.67;2.80;;;22.30;99.90;;;;;;5101029;28;20219;-86
2022/05/14 13:14:35;;;;;;;12.47;5.20;;;22.30;99.90;;;;;;5100752;28;20230;-85
2022/05/14 13:17:05;;;;;;;12.50;3.77;;;22.10;99.90;;;;;;5098462;28;20796;-87